Time;durP1;ratioP1;P1;durP2;ratioP2;P2;SDS_P1;SDS_P2;PMS_P1;PMS_P2;Temp;Humidity;BMP_temperature;BMP_pressure;BME280_temperature;BME280_humidity;BME280_pressure;Samples;Min_cycle;Max_cycle;Signal;HPM_P1;HPM_P2
2022/01/06 00:00:14;;;;;;;;;;;;;;;;;;1041518;28;3799;-73
2022/01/06 00:01:05;;;;;;;;;;;;;;;;;;1039050;28;4044;-74
2022/01/06 00:01:35;;;;;;;;;;;;;;;;;;1039970;28;3042;-74
2022/01/06 00:02:05;;;;;;;;;;;;;;;;;;1040333;28;3828;-74
2022/01/06 00:02:36;;;;;;;;;;;;;;;;;;1043936;28;1662;-74
2022/01/06 00:03:06;;;;;;;;;;;;;;;;;;1042865;28;3787;-74
2022/01/06 00:03:37;;;;;;;;;;;;;;;;;;1044701;28;2685;-74
2022/01/06 00:04:07;;;;;;;;;;;;;;;;;;1044381;28;3918;-74
2022/01/06 00:04:37;;;;;;;;;;;;;;;;;;1043070;28;3107;-74
2022/01/06 00:05:08;;;;;;;;;;;;;;;;;;1042305;28;3989;-74
2022/01/06 00:05:38;;;;;;;;;;;;;;;;;;1043202;28;3247;-74
2022/01/06 00:06:10;;;;;;;;;;;;;;;;;;1043603;28;3810;-75
2022/01/06 00:06:42;;;;;;;;;;;;;;;;;;1044802;28;2097;-74
2022/01/06 00:07:12;;;;;;;;;;;;;;;;;;1042536;28;3935;-74
2022/01/06 00:07:42;;;;;;;;;;;;;;;;;;1043388;28;3691;-75
2022/01/06 00:08:13;;;;;;;;;;;;;;;;;;1044169;28;3761;-74
2022/01/06 00:08:43;;;;;;;;;;;;;;;;;;1044204;28;1908;-74
2022/01/06 00:09:16;;;;;;;;;;;;;;;;;;1044051;28;3830;-76
2022/01/06 00:09:48;;;;;;;;;;;;;;;;;;1044241;28;3269;-74
2022/01/06 00:10:19;;;;;;;;;;;;;;;;;;1043555;28;3940;-75
2022/01/06 00:10:50;;;;;;;;;;;;;;;;;;1043951;28;1898;-76
2022/01/06 00:11:21;;;;;;;;;;;;;;;;;;1041031;28;3977;-74
2022/01/06 00:11:51;;;;;;;;;;;;;;;;;;1040857;28;1844;-74
2022/01/06 00:12:27;;;;;;;;;;;;;;;;;;1041498;28;3901;-74
2022/01/06 00:13:46;;;;;;;;;;;;;;;;;;1043166;28;1674;-74
2022/01/06 00:14:36;;;;;;;;;;;;;;;;;;1043005;28;3791;-74
2022/01/06 00:16:16;;;;;;;;;;;;;;;;;;1043478;28;3911;-74
2022/01/06 00:17:03;;;;;;;;;;;;;;;;;;1044475;28;1556;-74
2022/01/06 00:17:58;;;;;;;;;;;;;;;;;;1043969;28;3861;-74
2022/01/06 00:23:59;;;;;;;;;;;;;;;;;;1042971;28;3824;-75
2022/01/06 00:24:29;;;;;;;;;;;;;;;;;;1044148;28;2269;-72
2022/01/06 00:24:59;;;;;;;;;;;;;;;;;;1043361;28;3806;-74
2022/01/06 00:25:30;;;;;;;;;;;;;;;;;;1044010;28;3216;-74
2022/01/06 00:26:01;;;;;;;;;;;;;;;;;;1039882;28;4080;-75
2022/01/06 00:26:31;;;;;;;;;;;;;;;;;;1042280;28;1629;-74
2022/01/06 00:27:02;;;;;;;;;;;;;;;;;;1040307;28;3783;-75
2022/01/06 00:27:32;;;;;;;;;;;;;;;;;;1037478;28;3043;-74
2022/01/06 00:28:02;;;;;;;;;;;;;;;;;;1039801;28;3856;-74
2022/01/06 00:28:33;;;;;;;;;;;;;;;;;;1040467;28;1588;-73
2022/01/06 00:29:03;;;;;;;;;;;;;;;;;;1036468;28;4075;-75
2022/01/06 00:29:34;;;;;;;;;;;;;;;;;;1041059;28;2055;-74
2022/01/06 00:30:04;;;;;;;;;;;;;;;;;;1040240;28;4203;-74
2022/01/06 00:30:34;;;;;;;;;;;;;;;;;;1041946;28;2443;-74
2022/01/06 00:31:05;;;;;;;;;;;;;;;;;;1042690;28;4043;-74
2022/01/06 00:31:35;;;;;;;;;;;;;;;;;;1043918;28;3478;-74
2022/01/06 00:32:06;;;;;;;;;;;;;;;;;;1042660;28;3807;-74
2022/01/06 00:32:36;;;;;;;;;;;;;;;;;;1043611;28;1785;-74
2022/01/06 00:33:06;;;;;;;;;;;;;;;;;;1044309;28;4708;-74
2022/01/06 00:33:37;;;;;;;;;;;;;;;;;;1043191;28;1599;-74
2022/01/06 00:34:10;;;;;;;;;;;;;;;;;;1043765;28;3929;-74
2022/01/06 00:34:41;;;;;;;;;;;;;;;;;;1043265;28;1981;-75
2022/01/06 00:35:12;;;;;;;;;;;;;;;;;;1041972;28;4135;-75
2022/01/06 00:35:42;;;;;;;;;;;;;;;;;;1043816;28;3487;-74
2022/01/06 00:36:13;;;;;;;;;;;;;;;;;;1043854;28;3828;-74
2022/01/06 00:36:43;;;;;;;;;;;;;;;;;;1044230;28;2628;-74
2022/01/06 00:37:13;;;;;;;;;;;;;;;;;;1042011;28;4019;-74
2022/01/06 00:37:43;;;;;;;;;;;;;;;;;;1043659;28;2368;-75
2022/01/06 00:38:14;;;;;;;;;;;;;;;;;;1044421;28;3774;-73
2022/01/06 00:38:44;;;;;;;;;;;;;;;;;;1043477;28;2433;-75
2022/01/06 00:39:14;;;;;;;;;;;;;;;;;;1043866;28;3786;-75
2022/01/06 00:39:45;;;;;;;;;;;;;;;;;;1044823;28;3199;-74
2022/01/06 00:40:22;;;;;;;;;;;;;;;;;;1043464;28;3714;-74
2022/01/06 00:40:53;;;;;;;;;;;;;;;;;;1042910;28;2012;-74
2022/01/06 00:41:24;;;;;;;;;;;;;;;;;;1043455;28;4002;-75
2022/01/06 00:41:56;;;;;;;;;;;;;;;;;;1042725;28;4808;-75
2022/01/06 00:42:26;;;;;;;;;;;;;;;;;;1043394;28;1946;-74
2022/01/06 00:42:57;;;;;;;;;;;;;;;;;;1042609;28;4015;-74
2022/01/06 00:43:27;;;;;;;;;;;;;;;;;;1044482;28;1996;-74
2022/01/06 00:44:02;;;;;;;;;;;;;;;;;;1044452;28;3974;-76
2022/01/06 00:44:32;;;;;;;;;;;;;;;;;;1043273;28;3342;-74
2022/01/06 00:45:03;;;;;;;;;;;;;;;;;;1042368;28;3905;-74
2022/01/06 00:45:33;;;;;;;;;;;;;;;;;;1044283;28;3166;-75
2022/01/06 00:46:04;;;;;;;;;;;;;;;;;;1042726;28;3838;-75
2022/01/06 00:46:34;;;;;;;;;;;;;;;;;;1045610;28;1305;-74
2022/01/06 00:47:04;;;;;;;;;;;;;;;;;;1044008;28;3807;-74
2022/01/06 00:47:35;;;;;;;;;;;;;;;;;;1043951;28;1797;-75
2022/01/06 00:48:07;;;;;;;;;;;;;;;;;;1044318;28;3948;-74
2022/01/06 00:48:37;;;;;;;;;;;;;;;;;;1044373;28;1665;-74
2022/01/06 00:49:08;;;;;;;;;;;;;;;;;;1043354;28;3823;-74
2022/01/06 00:49:38;;;;;;;;;;;;;;;;;;1044480;28;2930;-75
2022/01/06 00:50:08;;;;;;;;;;;;;;;;;;1042711;28;4031;-75
2022/01/06 00:50:40;;;;;;;;;;;;;;;;;;1044446;28;3522;-75
2022/01/06 00:51:10;;;;;;;;;;;;;;;;;;1043547;28;3968;-75
2022/01/06 00:51:40;;;;;;;;;;;;;;;;;;1043450;28;1902;-75
2022/01/06 00:52:10;;;;;;;;;;;;;;;;;;1043403;28;3792;-74
2022/01/06 00:52:41;;;;;;;;;;;;;;;;;;1044634;28;1788;-74
2022/01/06 00:53:11;;;;;;;;;;;;;;;;;;1043548;28;3792;-75
2022/01/06 00:53:41;;;;;;;;;;;;;;;;;;1039199;28;2570;-74
2022/01/06 00:54:12;;;;;;;;;;;;;;;;;;1033629;28;4025;-74
2022/01/06 00:54:42;;;;;;;;;;;;;;;;;;1035714;28;2041;-74
2022/01/06 00:55:12;;;;;;;;;;;;;;;;;;1035586;28;3986;-74
2022/01/06 00:55:43;;;;;;;;;;;;;;;;;;1038524;28;2588;-75
2022/01/06 00:56:13;;;;;;;;;;;;;;;;;;1044254;28;3802;-74
2022/01/06 00:56:43;;;;;;;;;;;;;;;;;;1045476;28;1224;-74
2022/01/06 00:57:13;;;;;;;;;;;;;;;;;;1043135;28;3958;-74
2022/01/06 00:57:44;;;;;;;;;;;;;;;;;;1044250;28;1721;-74
2022/01/06 00:58:15;;;;;;;;;;;;;;;;;;1042389;28;3808;-74
2022/01/06 00:58:48;;;;;;;;;;;;;;;;;;1044210;28;3688;-74
2022/01/06 00:59:18;;;;;;;;;;;;;;;;;;1043417;28;3774;-74
2022/01/06 00:59:48;;;;;;;;;;;;;;;;;;1044864;28;1676;-74
2022/01/06 01:00:18;;;;;;;;;;;;;;;;;;1039866;28;3738;-74
2022/01/06 01:00:49;;;;;;;;;;;;;;;;;;1043691;28;2935;-74
2022/01/06 01:01:19;;;;;;;;;;;;;;;;;;1037806;28;3949;-74
2022/01/06 01:01:49;;;;;;;;;;;;;;;;;;1038887;28;2321;-74
2022/01/06 01:02:19;;;;;;;;;;;;;;;;;;1035596;28;3818;-75
2022/01/06 01:02:50;;;;;;;;;;;;;;;;;;1035472;28;1680;-74
2022/01/06 01:03:21;;;;;;;;;;;;;;;;;;1040291;28;3779;-75
2022/01/06 01:03:51;;;;;;;;;;;;;;;;;;1039826;28;1735;-74
2022/01/06 01:04:21;;;;;;;;;;;;;;;;;;1038593;28;4032;-74
2022/01/06 01:04:52;;;;;;;;;;;;;;;;;;1040295;28;1794;-74
2022/01/06 01:05:22;;;;;;;;;;;;;;;;;;1038891;28;3751;-74
2022/01/06 01:05:53;;;;;;;;;;;;;;;;;;1040333;28;1581;-74
2022/01/06 01:06:23;;;;;;;;;;;;;;;;;;1039161;28;4123;-72
2022/01/06 01:06:53;;;;;;;;;;;;;;;;;;1038893;28;3837;-74
2022/01/06 01:07:24;;;;;;;;;;;;;;;;;;1038581;28;2054;-74
2022/01/06 01:07:54;;;;;;;;;;;;;;;;;;1037100;28;3818;-74
2022/01/06 01:08:25;;;;;;;;;;;;;;;;;;1041810;28;2158;-74
2022/01/06 01:08:55;;;;;;;;;;;;;;;;;;1042501;28;3911;-74
2022/01/06 01:09:26;;;;;;;;;;;;;;;;;;1043806;28;1885;-74
2022/01/06 01:09:56;;;;;;;;;;;;;;;;;;1038636;28;3806;-75
2022/01/06 01:10:26;;;;;;;;;;;;;;;;;;1038592;28;1758;-74
2022/01/06 01:10:56;;;;;;;;;;;;;;;;;;1038163;28;4042;-74
2022/01/06 01:11:27;;;;;;;;;;;;;;;;;;1039427;28;1923;-74
2022/01/06 01:12:03;;;;;;;;;;;;;;;;;;1041536;28;3828;-75
2022/01/06 01:12:33;;;;;;;;;;;;;;;;;;1044321;28;1565;-74
2022/01/06 01:13:04;;;;;;;;;;;;;;;;;;1043019;28;3955;-74
2022/01/06 01:13:43;;;;;;;;;;;;;;;;;;1043539;28;1862;-74
2022/01/06 01:14:28;;;;;;;;;;;;;;;;;;1042993;28;3894;-73
2022/01/06 01:15:06;;;;;;;;;;;;;;;;;;1043687;28;3941;-74
2022/01/06 01:15:44;;;;;;;;;;;;;;;;;;1044028;28;2674;-74
2022/01/06 01:16:24;;;;;;;;;;;;;;;;;;1040782;28;3746;-74
2022/01/06 01:16:58;;;;;;;;;;;;;;;;;;1040482;28;3799;-75
2022/01/06 01:17:29;;;;;;;;;;;;;;;;;;1041622;28;2650;-73
2022/01/06 01:18:05;;;;;;;;;;;;;;;;;;1041385;28;4242;-73
2022/01/06 01:18:36;;;;;;;;;;;;;;;;;;1044151;28;1676;-75
2022/01/06 01:19:10;;;;;;;;;;;;;;;;;;1045218;28;3946;-74
2022/01/06 01:19:41;;;;;;;;;;;;;;;;;;1044577;28;3174;-74
2022/01/06 01:20:11;;;;;;;;;;;;;;;;;;1042216;28;3797;-74
2022/01/06 01:20:41;;;;;;;;;;;;;;;;;;1040549;28;3651;-74
2022/01/06 01:21:12;;;;;;;;;;;;;;;;;;1041118;28;3801;-75
2022/01/06 01:21:42;;;;;;;;;;;;;;;;;;1041902;28;3343;-74
2022/01/06 01:22:12;;;;;;;;;;;;;;;;;;1040495;28;3927;-74
2022/01/06 01:22:43;;;;;;;;;;;;;;;;;;1045415;28;1752;-74
2022/01/06 01:23:14;;;;;;;;;;;;;;;;;;1044707;28;3987;-75
2022/01/06 01:23:45;;;;;;;;;;;;;;;;;;1042527;28;3061;-73
2022/01/06 01:24:16;;;;;;;;;;;;;;;;;;1041575;28;3815;-74
2022/01/06 01:24:46;;;;;;;;;;;;;;;;;;1043980;28;1568;-74
2022/01/06 01:25:16;;;;;;;;;;;;;;;;;;1043208;28;3793;-74
2022/01/06 01:25:47;;;;;;;;;;;;;;;;;;1043864;28;1746;-74
2022/01/06 01:26:17;;;;;;;;;;;;;;;;;;1042168;28;3793;-74
2022/01/06 01:26:47;;;;;;;;;;;;;;;;;;1044267;28;3224;-74
2022/01/06 01:27:21;;;;;;;;;;;;;;;;;;1043831;28;3838;-74
2022/01/06 01:27:55;;;;;;;;;;;;;;;;;;1042338;28;2051;-74
2022/01/06 01:28:32;;;;;;;;;;;;;;;;;;1042961;28;5708;-74
2022/01/06 01:29:03;;;;;;;;;;;;;;;;;;1040135;28;3830;-74
2022/01/06 01:29:40;;;;;;;;;;;;;;;;;;1040510;28;3430;-75
2022/01/06 01:30:12;;;;;;;;;;;;;;;;;;1038765;28;3812;-74
2022/01/06 01:31:01;;;;;;;;;;;;;;;;;;1042230;28;2754;-74
2022/01/06 01:31:36;;;;;;;;;;;;;;;;;;1044046;28;3647;-74
2022/01/06 01:32:06;;;;;;;;;;;;;;;;;;1043474;28;3821;-74
2022/01/06 01:32:38;;;;;;;;;;;;;;;;;;1043911;28;3030;-73
2022/01/06 01:33:15;;;;;;;;;;;;;;;;;;1043274;28;4002;-74
2022/01/06 01:33:46;;;;;;;;;;;;;;;;;;1043601;28;2135;-74
2022/01/06 01:34:22;;;;;;;;;;;;;;;;;;1042100;28;3879;-74
2022/01/06 01:34:59;;;;;;;;;;;;;;;;;;1042843;28;3094;-74
2022/01/06 01:35:32;;;;;;;;;;;;;;;;;;1037491;28;6693;-74
2022/01/06 01:36:02;;;;;;;;;;;;;;;;;;1038529;28;3786;-74
2022/01/06 01:36:32;;;;;;;;;;;;;;;;;;1038686;28;2468;-73
2022/01/06 01:37:02;;;;;;;;;;;;;;;;;;1038454;28;3809;-73
2022/01/06 01:37:33;;;;;;;;;;;;;;;;;;1044262;28;1672;-74
2022/01/06 01:38:04;;;;;;;;;;;;;;;;;;1043390;28;3947;-74
2022/01/06 01:38:36;;;;;;;;;;;;;;;;;;1043455;28;3036;-74
2022/01/06 01:39:07;;;;;;;;;;;;;;;;;;1037325;28;3997;-74
2022/01/06 01:39:37;;;;;;;;;;;;;;;;;;1037989;28;3309;-73
2022/01/06 01:40:08;;;;;;;;;;;;;;;;;;1037525;28;4004;-75
2022/01/06 01:40:39;;;;;;;;;;;;;;;;;;1038919;28;2478;-74
2022/01/06 01:41:10;;;;;;;;;;;;;;;;;;1042206;28;3959;-74
2022/01/06 01:41:40;;;;;;;;;;;;;;;;;;1044338;28;1785;-74
2022/01/06 01:42:10;;;;;;;;;;;;;;;;;;1042672;28;4023;-74
2022/01/06 01:42:41;;;;;;;;;;;;;;;;;;1044184;28;1849;-74
2022/01/06 01:43:11;;;;;;;;;;;;;;;;;;1042615;28;3787;-74
2022/01/06 01:43:42;;;;;;;;;;;;;;;;;;1045708;28;1945;-74
2022/01/06 01:44:13;;;;;;;;;;;;;;;;;;1043012;28;3809;-74
2022/01/06 01:44:44;;;;;;;;;;;;;;;;;;1043422;28;1935;-75
2022/01/06 01:45:16;;;;;;;;;;;;;;;;;;1042921;28;3978;-74
2022/01/06 01:45:54;;;;;;;;;;;;;;;;;;1043961;28;2952;-74
2022/01/06 01:46:29;;;;;;;;;;;;;;;;;;1044164;28;4134;-74
2022/01/06 01:47:08;;;;;;;;;;;;;;;;;;1042212;28;4248;-74
2022/01/06 01:47:42;;;;;;;;;;;;;;;;;;1043912;28;1713;-75
2022/01/06 01:48:21;;;;;;;;;;;;;;;;;;1043093;28;4038;-74
2022/01/06 01:49:12;;;;;;;;;;;;;;;;;;1044223;28;3125;-74
2022/01/06 01:49:51;;;;;;;;;;;;;;;;;;1042269;28;3853;-74
2022/01/06 01:50:21;;;;;;;;;;;;;;;;;;1042130;28;3801;-74
2022/01/06 01:50:52;;;;;;;;;;;;;;;;;;1044756;28;1893;-74
2022/01/06 01:51:22;;;;;;;;;;;;;;;;;;1042926;28;3707;-74
2022/01/06 01:51:54;;;;;;;;;;;;;;;;;;1043524;28;1632;-74
2022/01/06 01:52:24;;;;;;;;;;;;;;;;;;1043971;28;3634;-74
2022/01/06 01:52:56;;;;;;;;;;;;;;;;;;1043194;28;3800;-74
2022/01/06 01:53:26;;;;;;;;;;;;;;;;;;1043432;28;3147;-73
2022/01/06 01:53:57;;;;;;;;;;;;;;;;;;1043784;28;3892;-73
2022/01/06 01:54:27;;;;;;;;;;;;;;;;;;1040346;28;2371;-75
2022/01/06 01:54:57;;;;;;;;;;;;;;;;;;1040699;28;3881;-73
2022/01/06 01:55:28;;;;;;;;;;;;;;;;;;1039687;28;3687;-74
2022/01/06 01:55:59;;;;;;;;;;;;;;;;;;1040497;28;3840;-75
2022/01/06 01:56:29;;;;;;;;;;;;;;;;;;1043061;28;3319;-74
2022/01/06 01:57:00;;;;;;;;;;;;;;;;;;1042507;28;4043;-73
2022/01/06 01:57:30;;;;;;;;;;;;;;;;;;1044399;28;1686;-75
2022/01/06 01:58:00;;;;;;;;;;;;;;;;;;1042459;28;3814;-74
2022/01/06 01:58:31;;;;;;;;;;;;;;;;;;1044081;28;2061;-74
2022/01/06 01:59:02;;;;;;;;;;;;;;;;;;1043982;28;4030;-74
2022/01/06 01:59:32;;;;;;;;;;;;;;;;;;1043836;28;1952;-74
2022/01/06 02:00:04;;;;;;;;;;;;;;;;;;1043687;28;3829;-74
2022/01/06 02:00:35;;;;;;;;;;;;;;;;;;1043913;28;2115;-74
2022/01/06 02:01:06;;;;;;;;;;;;;;;;;;1042481;28;3969;-74
2022/01/06 02:01:37;;;;;;;;;;;;;;;;;;1044001;28;3508;-74
2022/01/06 02:02:08;;;;;;;;;;;;;;;;;;1042223;28;3890;-76
2022/01/06 02:02:38;;;;;;;;;;;;;;;;;;1038003;28;3247;-74
2022/01/06 02:03:09;;;;;;;;;;;;;;;;;;1037451;28;3792;-75
2022/01/06 02:03:39;;;;;;;;;;;;;;;;;;1039533;28;3095;-74
2022/01/06 02:04:09;;;;;;;;;;;;;;;;;;1039962;28;3824;-74
2022/01/06 02:04:39;;;;;;;;;;;;;;;;;;1044271;28;1567;-74
2022/01/06 02:05:10;;;;;;;;;;;;;;;;;;1042885;28;4932;-75
2022/01/06 02:05:40;;;;;;;;;;;;;;;;;;1043769;28;4027;-74
2022/01/06 02:06:11;;;;;;;;;;;;;;;;;;1042640;28;3998;-74
2022/01/06 02:06:41;;;;;;;;;;;;;;;;;;1044429;28;1589;-74
2022/01/06 02:07:11;;;;;;;;;;;;;;;;;;1044113;28;3807;-74
2022/01/06 02:07:41;;;;;;;;;;;;;;;;;;1043945;28;2451;-74
2022/01/06 02:08:12;;;;;;;;;;;;;;;;;;1042956;28;3817;-74
2022/01/06 02:08:43;;;;;;;;;;;;;;;;;;1044288;28;1946;-74
2022/01/06 02:09:13;;;;;;;;;;;;;;;;;;1043288;28;3838;-74
2022/01/06 02:09:43;;;;;;;;;;;;;;;;;;1042523;28;3652;-74
2022/01/06 02:10:13;;;;;;;;;;;;;;;;;;1041920;28;3997;-74
2022/01/06 02:10:44;;;;;;;;;;;;;;;;;;1043782;28;1703;-74
2022/01/06 02:11:14;;;;;;;;;;;;;;;;;;1043485;28;3952;-74
2022/01/06 02:11:44;;;;;;;;;;;;;;;;;;1043336;28;2527;-74
2022/01/06 02:12:30;;;;;;;;;;;;;;;;;;1044263;28;3956;-74
2022/01/06 02:13:01;;;;;;;;;;;;;;;;;;1040475;28;3813;-74
2022/01/06 02:13:32;;;;;;;;;;;;;;;;;;1040863;28;2355;-74
2022/01/06 02:14:05;;;;;;;;;;;;;;;;;;1036036;28;3830;-74
2022/01/06 02:14:37;;;;;;;;;;;;;;;;;;1037661;28;3196;-74
2022/01/06 02:15:08;;;;;;;;;;;;;;;;;;1037964;28;4047;-74
2022/01/06 02:15:39;;;;;;;;;;;;;;;;;;1040221;28;2625;-74
2022/01/06 02:16:09;;;;;;;;;;;;;;;;;;1042077;28;4022;-74
2022/01/06 02:16:39;;;;;;;;;;;;;;;;;;1039574;28;1533;-74
2022/01/06 02:17:09;;;;;;;;;;;;;;;;;;1038309;28;3816;-75
2022/01/06 02:17:41;;;;;;;;;;;;;;;;;;1039600;28;1781;-74
2022/01/06 02:18:11;;;;;;;;;;;;;;;;;;1039423;28;3808;-74
2022/01/06 02:18:42;;;;;;;;;;;;;;;;;;1039896;28;1772;-74
2022/01/06 02:19:12;;;;;;;;;;;;;;;;;;1039008;28;3951;-75
2022/01/06 02:19:52;;;;;;;;;;;;;;;;;;1043415;28;3120;-74
2022/01/06 02:20:23;;;;;;;;;;;;;;;;;;1042297;28;3703;-75
2022/01/06 02:20:53;;;;;;;;;;;;;;;;;;1044477;28;3782;-75
2022/01/06 02:21:23;;;;;;;;;;;;;;;;;;1043653;28;3035;-75
2022/01/06 02:21:53;;;;;;;;;;;;;;;;;;1043415;28;3820;-74
2022/01/06 02:22:24;;;;;;;;;;;;;;;;;;1044000;28;3326;-74
2022/01/06 02:22:54;;;;;;;;;;;;;;;;;;1043472;28;4158;-74
2022/01/06 02:23:25;;;;;;;;;;;;;;;;;;1044299;28;3248;-74
2022/01/06 02:23:55;;;;;;;;;;;;;;;;;;1043829;28;3783;-74
2022/01/06 02:24:25;;;;;;;;;;;;;;;;;;1043145;28;3356;-74
2022/01/06 02:24:55;;;;;;;;;;;;;;;;;;1042916;28;3789;-74
2022/01/06 02:25:30;;;;;;;;;;;;;;;;;;1043731;28;1618;-75
2022/01/06 02:26:00;;;;;;;;;;;;;;;;;;1043547;28;4038;-74
2022/01/06 02:26:30;;;;;;;;;;;;;;;;;;1038598;28;2899;-73
2022/01/06 02:27:00;;;;;;;;;;;;;;;;;;1037841;28;3994;-74
2022/01/06 02:27:31;;;;;;;;;;;;;;;;;;1038249;28;2667;-74
2022/01/06 02:28:02;;;;;;;;;;;;;;;;;;1037290;28;3821;-75
2022/01/06 02:28:33;;;;;;;;;;;;;;;;;;1041239;28;3524;-74
2022/01/06 02:29:03;;;;;;;;;;;;;;;;;;1039295;28;3884;-73
2022/01/06 02:29:33;;;;;;;;;;;;;;;;;;1041080;28;3126;-75
2022/01/06 02:30:04;;;;;;;;;;;;;;;;;;1040269;28;4151;-74
2022/01/06 02:30:36;;;;;;;;;;;;;;;;;;1044060;28;2066;-75
2022/01/06 02:31:07;;;;;;;;;;;;;;;;;;1043319;28;3892;-74
2022/01/06 02:31:41;;;;;;;;;;;;;;;;;;1043839;28;1594;-75
2022/01/06 02:32:15;;;;;;;;;;;;;;;;;;1043300;28;3975;-74
2022/01/06 02:32:46;;;;;;;;;;;;;;;;;;1039804;28;1618;-74
2022/01/06 02:33:16;;;;;;;;;;;;;;;;;;1037623;28;3836;-74
2022/01/06 02:33:48;;;;;;;;;;;;;;;;;;1037565;28;3211;-75
2022/01/06 02:34:19;;;;;;;;;;;;;;;;;;1038232;28;3771;-74
2022/01/06 02:34:49;;;;;;;;;;;;;;;;;;1038484;28;3247;-75
2022/01/06 02:35:20;;;;;;;;;;;;;;;;;;1039921;28;3788;-74
2022/01/06 02:35:51;;;;;;;;;;;;;;;;;;1041629;28;1755;-74
2022/01/06 02:36:21;;;;;;;;;;;;;;;;;;1035961;28;3786;-73
2022/01/06 02:36:52;;;;;;;;;;;;;;;;;;1039564;28;3240;-74
2022/01/06 02:37:22;;;;;;;;;;;;;;;;;;1041158;28;4108;-74
2022/01/06 02:37:53;;;;;;;;;;;;;;;;;;1042479;28;1668;-74
2022/01/06 02:38:23;;;;;;;;;;;;;;;;;;1044055;28;3961;-74
2022/01/06 02:38:53;;;;;;;;;;;;;;;;;;1043555;28;3981;-74
2022/01/06 02:39:23;;;;;;;;;;;;;;;;;;1045122;28;1698;-73
2022/01/06 02:39:54;;;;;;;;;;;;;;;;;;1043749;28;3818;-75
2022/01/06 02:40:25;;;;;;;;;;;;;;;;;;1045267;28;1679;-73
2022/01/06 02:40:55;;;;;;;;;;;;;;;;;;1043929;28;3940;-73
2022/01/06 02:41:25;;;;;;;;;;;;;;;;;;1045334;28;3353;-73
2022/01/06 02:41:56;;;;;;;;;;;;;;;;;;1043208;28;3896;-74
2022/01/06 02:42:27;;;;;;;;;;;;;;;;;;1044188;28;2684;-73
2022/01/06 02:42:58;;;;;;;;;;;;;;;;;;1043524;28;3813;-74
2022/01/06 02:43:30;;;;;;;;;;;;;;;;;;1043304;28;2267;-74
2022/01/06 02:44:01;;;;;;;;;;;;;;;;;;1044722;28;3877;-74
2022/01/06 02:44:31;;;;;;;;;;;;;;;;;;1045497;28;2658;-73
2022/01/06 02:45:02;;;;;;;;;;;;;;;;;;1043088;28;3991;-74
2022/01/06 02:45:33;;;;;;;;;;;;;;;;;;1044792;28;2846;-74
2022/01/06 02:46:03;;;;;;;;;;;;;;;;;;1042174;28;3824;-74
2022/01/06 02:46:39;;;;;;;;;;;;;;;;;;1044089;28;1768;-74
2022/01/06 02:47:09;;;;;;;;;;;;;;;;;;1043453;28;3937;-74
2022/01/06 02:47:40;;;;;;;;;;;;;;;;;;1044845;28;1399;-74
2022/01/06 02:48:11;;;;;;;;;;;;;;;;;;1043523;28;3879;-73
2022/01/06 02:48:41;;;;;;;;;;;;;;;;;;1044936;28;3416;-74
2022/01/06 02:49:12;;;;;;;;;;;;;;;;;;1044204;28;4031;-74
2022/01/06 02:49:42;;;;;;;;;;;;;;;;;;1045965;28;1899;-74
2022/01/06 02:50:13;;;;;;;;;;;;;;;;;;1042909;28;3789;-74
2022/01/06 02:50:44;;;;;;;;;;;;;;;;;;1043743;28;1550;-75
2022/01/06 02:51:15;;;;;;;;;;;;;;;;;;1043247;28;4212;-74
2022/01/06 02:51:45;;;;;;;;;;;;;;;;;;1045427;28;1933;-74
2022/01/06 02:52:15;;;;;;;;;;;;;;;;;;1043129;28;3793;-74
2022/01/06 02:52:46;;;;;;;;;;;;;;;;;;1046091;28;1333;-73
2022/01/06 02:53:17;;;;;;;;;;;;;;;;;;1042062;28;4076;-73
2022/01/06 02:53:50;;;;;;;;;;;;;;;;;;1042537;28;3590;-73
2022/01/06 02:54:21;;;;;;;;;;;;;;;;;;1044021;28;3806;-74
2022/01/06 02:54:51;;;;;;;;;;;;;;;;;;1040568;28;3432;-74
2022/01/06 02:55:22;;;;;;;;;;;;;;;;;;1039835;28;3781;-74
2022/01/06 02:55:53;;;;;;;;;;;;;;;;;;1040808;28;3122;-74
2022/01/06 02:56:23;;;;;;;;;;;;;;;;;;1041744;28;3729;-74
2022/01/06 02:56:54;;;;;;;;;;;;;;;;;;1043407;28;3822;-74
2022/01/06 02:57:24;;;;;;;;;;;;;;;;;;1044248;28;1749;-75
2022/01/06 02:57:54;;;;;;;;;;;;;;;;;;1043627;28;3985;-74
2022/01/06 02:58:24;;;;;;;;;;;;;;;;;;1039835;28;1957;-73
2022/01/06 02:58:54;;;;;;;;;;;;;;;;;;1038257;28;4035;-74
2022/01/06 02:59:25;;;;;;;;;;;;;;;;;;1040617;28;1895;-74
2022/01/06 02:59:55;;;;;;;;;;;;;;;;;;1036975;28;3840;-74
2022/01/06 03:00:25;;;;;;;;;;;;;;;;;;1041276;28;3065;-74
2022/01/06 03:00:56;;;;;;;;;;;;;;;;;;1042844;28;3824;-73
2022/01/06 03:01:26;;;;;;;;;;;;;;;;;;1044608;28;2925;-72
2022/01/06 03:01:56;;;;;;;;;;;;;;;;;;1044708;28;3972;-73
2022/01/06 03:02:26;;;;;;;;;;;;;;;;;;1043943;28;2597;-74
2022/01/06 03:02:57;;;;;;;;;;;;;;;;;;1043099;28;3938;-74
2022/01/06 03:03:27;;;;;;;;;;;;;;;;;;1045681;28;1552;-73
2022/01/06 03:03:57;;;;;;;;;;;;;;;;;;1038811;28;5398;-74
2022/01/06 03:04:28;;;;;;;;;;;;;;;;;;1038073;28;3221;-74
2022/01/06 03:04:58;;;;;;;;;;;;;;;;;;1037271;28;3810;-72
2022/01/06 03:05:28;;;;;;;;;;;;;;;;;;1038597;28;1604;-74
2022/01/06 03:05:58;;;;;;;;;;;;;;;;;;1041515;28;3974;-74
2022/01/06 03:06:29;;;;;;;;;;;;;;;;;;1043996;28;1919;-74
2022/01/06 03:07:01;;;;;;;;;;;;;;;;;;1043367;28;3808;-74
2022/01/06 03:07:31;;;;;;;;;;;;;;;;;;1045243;28;2452;-74
2022/01/06 03:08:02;;;;;;;;;;;;;;;;;;1043241;28;3833;-74
2022/01/06 03:08:34;;;;;;;;;;;;;;;;;;1044008;28;1351;-73
2022/01/06 03:09:04;;;;;;;;;;;;;;;;;;1042834;28;3866;-74
2022/01/06 03:09:38;;;;;;;;;;;;;;;;;;1042991;28;3010;-74
2022/01/06 03:10:11;;;;;;;;;;;;;;;;;;1043142;28;4082;-73
2022/01/06 03:10:43;;;;;;;;;;;;;;;;;;1042226;28;3484;-74
2022/01/06 03:11:14;;;;;;;;;;;;;;;;;;1044400;28;3792;-74
2022/01/06 03:11:44;;;;;;;;;;;;;;;;;;1044435;28;1838;-73
2022/01/06 03:12:23;;;;;;;;;;;;;;;;;;1044750;28;3943;-74
2022/01/06 03:12:54;;;;;;;;;;;;;;;;;;1044828;28;3830;-74
2022/01/06 03:13:24;;;;;;;;;;;;;;;;;;1044931;28;2361;-74
2022/01/06 03:13:54;;;;;;;;;;;;;;;;;;1042088;28;3838;-74
2022/01/06 03:14:24;;;;;;;;;;;;;;;;;;1044059;28;2068;-73
2022/01/06 03:14:55;;;;;;;;;;;;;;;;;;1043459;28;4091;-73
2022/01/06 03:15:25;;;;;;;;;;;;;;;;;;1044519;28;3285;-74
2022/01/06 03:15:56;;;;;;;;;;;;;;;;;;1044787;28;3961;-73
2022/01/06 03:16:26;;;;;;;;;;;;;;;;;;1044461;28;1451;-73
2022/01/06 03:16:56;;;;;;;;;;;;;;;;;;1037896;28;3950;-74
2022/01/06 03:17:27;;;;;;;;;;;;;;;;;;1038472;28;1944;-74
2022/01/06 03:17:57;;;;;;;;;;;;;;;;;;1038223;28;3984;-74
2022/01/06 03:18:28;;;;;;;;;;;;;;;;;;1035948;28;1397;-74
2022/01/06 03:18:58;;;;;;;;;;;;;;;;;;1041113;28;3827;-73
2022/01/06 03:19:28;;;;;;;;;;;;;;;;;;1041293;28;3834;-74
2022/01/06 03:19:58;;;;;;;;;;;;;;;;;;1041748;28;3885;-74
2022/01/06 03:20:29;;;;;;;;;;;;;;;;;;1045491;28;3838;-73
2022/01/06 03:21:00;;;;;;;;;;;;;;;;;;1044342;28;3927;-74
2022/01/06 03:21:30;;;;;;;;;;;;;;;;;;1045119;28;1502;-73
2022/01/06 03:22:00;;;;;;;;;;;;;;;;;;1044022;28;4393;-73
2022/01/06 03:22:31;;;;;;;;;;;;;;;;;;1044487;28;2510;-73
2022/01/06 03:23:01;;;;;;;;;;;;;;;;;;1043411;28;3956;-74
2022/01/06 03:23:31;;;;;;;;;;;;;;;;;;1044930;28;1947;-74
2022/01/06 03:24:02;;;;;;;;;;;;;;;;;;1044436;28;3796;-73
2022/01/06 03:24:32;;;;;;;;;;;;;;;;;;1043923;28;3623;-73
2022/01/06 03:25:03;;;;;;;;;;;;;;;;;;1043561;28;3780;-73
2022/01/06 03:25:33;;;;;;;;;;;;;;;;;;1043783;28;1836;-74
2022/01/06 03:26:04;;;;;;;;;;;;;;;;;;1043317;28;5401;-74
2022/01/06 03:26:34;;;;;;;;;;;;;;;;;;1044073;28;3360;-73
2022/01/06 03:27:04;;;;;;;;;;;;;;;;;;1043607;28;3911;-74
2022/01/06 03:27:35;;;;;;;;;;;;;;;;;;1043603;28;3574;-74
2022/01/06 03:28:05;;;;;;;;;;;;;;;;;;1043138;28;3803;-73
2022/01/06 03:28:35;;;;;;;;;;;;;;;;;;1044604;28;1993;-74
2022/01/06 03:29:06;;;;;;;;;;;;;;;;;;1043290;28;3777;-73
2022/01/06 03:29:36;;;;;;;;;;;;;;;;;;1042458;28;3069;-74
2022/01/06 03:30:07;;;;;;;;;;;;;;;;;;1044508;28;3955;-75
2022/01/06 03:30:38;;;;;;;;;;;;;;;;;;1045494;28;1963;-73
2022/01/06 03:31:08;;;;;;;;;;;;;;;;;;1044149;28;3776;-74
2022/01/06 03:31:38;;;;;;;;;;;;;;;;;;1044254;28;2883;-74
2022/01/06 03:32:08;;;;;;;;;;;;;;;;;;1044464;28;3807;-73
2022/01/06 03:32:39;;;;;;;;;;;;;;;;;;1043965;28;2512;-74
2022/01/06 03:33:09;;;;;;;;;;;;;;;;;;1042701;28;3810;-73
2022/01/06 03:33:39;;;;;;;;;;;;;;;;;;1045138;28;2168;-75
2022/01/06 03:34:10;;;;;;;;;;;;;;;;;;1043960;28;3807;-72
2022/01/06 03:34:40;;;;;;;;;;;;;;;;;;1043727;28;3337;-74
2022/01/06 03:35:12;;;;;;;;;;;;;;;;;;1044041;28;3818;-73
2022/01/06 03:35:42;;;;;;;;;;;;;;;;;;1045098;28;2379;-73
2022/01/06 03:36:13;;;;;;;;;;;;;;;;;;1043727;28;3764;-74
2022/01/06 03:36:43;;;;;;;;;;;;;;;;;;1043519;28;1269;-73
2022/01/06 03:37:14;;;;;;;;;;;;;;;;;;1042489;28;3880;-73
2022/01/06 03:37:44;;;;;;;;;;;;;;;;;;1044132;28;1905;-74
2022/01/06 03:38:14;;;;;;;;;;;;;;;;;;1043327;28;3992;-74
2022/01/06 03:38:44;;;;;;;;;;;;;;;;;;1044496;28;3335;-74
2022/01/06 03:39:15;;;;;;;;;;;;;;;;;;1042228;28;3778;-75
2022/01/06 03:39:45;;;;;;;;;;;;;;;;;;1044361;28;3612;-74
2022/01/06 03:40:15;;;;;;;;;;;;;;;;;;1045094;28;3939;-74
2022/01/06 03:40:45;;;;;;;;;;;;;;;;;;1043910;28;2111;-74
2022/01/06 03:41:16;;;;;;;;;;;;;;;;;;1043648;28;3989;-74
2022/01/06 03:41:47;;;;;;;;;;;;;;;;;;1040308;28;2893;-73
2022/01/06 03:42:17;;;;;;;;;;;;;;;;;;1030524;28;3866;-74
2022/01/06 03:42:47;;;;;;;;;;;;;;;;;;1030226;28;1678;-74
2022/01/06 03:43:19;;;;;;;;;;;;;;;;;;1030170;28;4069;-75
2022/01/06 03:43:49;;;;;;;;;;;;;;;;;;1034610;28;1645;-73
2022/01/06 03:44:19;;;;;;;;;;;;;;;;;;1043676;28;3744;-74
2022/01/06 03:44:50;;;;;;;;;;;;;;;;;;1043565;28;1737;-74
2022/01/06 03:45:21;;;;;;;;;;;;;;;;;;1044038;28;3780;-74